Laneville, Texas
Current Conditions -  °F | °C
As of 5:55 PM on Saturday 22 Nov 2014 (Local Time) from KRFI Reporting Station
Overcast Overcast  
Wind Chill: 64°   Ceiling: 2100
Heat Index: 64°   Visibility: 10mi
Dew Point: 60°   Wind: 6mph
Humidity: 87%   Direction: 100°E
Pressure: 29.89"   Gusts: NA
Location:  31.97°N, 94.81°W
Report Text: KRFI 222355Z AUTO 10005KT 10SM BKN021 OVC032 18/16 A2989 RMK AO2 LTG DSNT S AND SW T01770156 10215 20177
Loading
Personal Weather Stations






























Interactive Weather Map New forecast layout! Learn more

10-Day Weather Forecast

Advertisements
Track Severe Weather on mobile